createdAt,value
2019-02-10T00:01:43.412Z,67.32
2019-02-10T00:07:38.405Z,66.75
2019-02-10T00:13:33.412Z,69.93
2019-02-10T00:19:28.440Z,64.78
2019-02-10T00:25:23.424Z,58.28
2019-02-10T00:31:18.452Z,61.77
2019-02-10T00:37:13.479Z,64.7
2019-02-10T00:43:08.439Z,59.74
2019-02-10T00:49:03.465Z,57.43
2019-02-10T00:54:58.468Z,67.37
2019-02-10T01:00:53.448Z,65.38
2019-02-10T01:06:48.472Z,62.13
2019-02-10T01:12:43.539Z,61.12
2019-02-10T01:18:38.484Z,69.21
2019-02-10T01:24:33.499Z,57.62
2019-02-10T01:30:28.468Z,55.04
2019-02-10T01:36:23.510Z,56.14
2019-02-10T01:42:18.496Z,53.29
2019-02-10T01:48:13.524Z,57.73
2019-02-10T01:54:08.490Z,54.44
2019-02-10T02:00:03.491Z,61.38
2019-02-10T02:05:58.514Z,59.13
2019-02-10T02:11:53.507Z,55.96
2019-02-10T02:17:48.561Z,58.74
2019-02-10T02:23:43.571Z,58.23
2019-02-10T02:29:38.528Z,63.25
2019-02-10T02:35:33.547Z,61.47
2019-02-10T02:41:28.606Z,64.67
2019-02-10T02:47:23.550Z,66.75
2019-02-10T02:53:18.592Z,63.03
2019-02-10T02:59:13.641Z,59.21
2019-02-10T03:05:08.558Z,64.34
2019-02-10T03:11:03.562Z,63.61
2019-02-10T03:16:58.586Z,62.97
2019-02-10T03:22:53.575Z,65.58
2019-02-10T03:28:48.607Z,61.09
2019-02-10T03:34:43.654Z,58.45
2019-02-10T03:40:38.598Z,58.93
2019-02-10T03:46:33.576Z,63.84
2019-02-10T03:52:28.625Z,53.49
2019-02-10T03:58:23.613Z,56.62
2019-02-10T04:04:18.602Z,56.03
2019-02-10T04:10:13.702Z,61.7
2019-02-10T04:16:08.616Z,57.72
2019-02-10T04:22:03.645Z,62.46
2019-02-10T04:27:58.709Z,58.97
2019-02-10T04:33:53.630Z,60.06
2019-02-10T04:39:48.644Z,59.71
2019-02-10T04:45:43.646Z,61.33
2019-02-10T04:51:38.718Z,56.4
2019-02-10T04:57:33.666Z,62.96
2019-02-10T05:03:28.655Z,60.31
2019-02-10T05:09:23.685Z,54.59
2019-02-10T05:15:18.665Z,57.29
2019-02-10T05:21:13.695Z,51.8
2019-02-10T05:27:08.685Z,49.05
2019-02-10T05:33:03.720Z,54.17
2019-02-10T05:38:58.677Z,57.43
2019-02-10T05:44:53.715Z,53.11
2019-02-10T05:50:48.778Z,50.48
2019-02-10T05:56:43.727Z,52.15
2019-02-10T06:02:38.712Z,56.76
2019-02-10T06:08:33.724Z,59.04
2019-02-10T06:14:28.755Z,64.18
2019-02-10T06:20:23.724Z,59.95
2019-02-10T06:26:18.778Z,63.04
2019-02-10T06:32:13.729Z,71.5
2019-02-10T06:38:08.734Z,64.05
2019-02-10T06:44:03.755Z,64.79
2019-02-10T06:49:58.753Z,62.07
2019-02-10T06:55:53.759Z,51.01
2019-02-10T07:01:48.755Z,54.65
2019-02-10T07:07:43.766Z,47.97
2019-02-10T07:13:38.788Z,50.35
2019-02-10T07:19:33.769Z,47.43
2019-02-10T07:25:28.786Z,43.54
2019-02-10T07:31:23.805Z,38.56
2019-02-10T07:37:18.809Z,35.73
2019-02-10T07:43:13.807Z,38.74
2019-02-10T07:49:08.802Z,46.85
2019-02-10T07:55:03.823Z,46.7
2019-02-10T08:00:58.857Z,51.97
2019-02-10T08:06:53.859Z,60.61
2019-02-10T08:12:48.865Z,58.97
2019-02-10T08:18:43.838Z,59.69
2019-02-10T08:24:38.815Z,61.22
2019-02-10T08:30:33.821Z,56.35
2019-02-10T08:36:28.826Z,56.38
2019-02-10T08:42:23.848Z,59.27
2019-02-10T08:48:18.856Z,52.15
2019-02-10T08:54:13.869Z,52.87
2019-02-10T09:00:08.841Z,47.81
2019-02-10T09:06:03.846Z,50.44
2019-02-10T09:11:58.913Z,51.12
2019-02-10T09:17:53.922Z,58.6
2019-02-10T09:23:48.906Z,57.97
2019-02-10T09:29:43.959Z,53.25
2019-02-10T09:35:38.883Z,48.18
2019-02-10T09:41:33.924Z,55.99
2019-02-10T09:47:28.905Z,53.62
2019-02-10T09:53:23.900Z,55.44
2019-02-10T09:59:18.931Z,49.71
2019-02-10T10:05:13.961Z,47.25
2019-02-10T10:11:08.926Z,43.22
2019-02-10T10:17:03.975Z,44.69
2019-02-10T10:22:58.931Z,41.22
2019-02-10T10:28:53.930Z,38.33
2019-02-10T10:34:48.948Z,41.7
2019-02-10T10:40:43.945Z,38.62
2019-02-10T10:46:38.970Z,31.12
2019-02-10T10:52:33.997Z,32.26
2019-02-10T10:58:29.025Z,24.14
2019-02-10T11:04:24.057Z,25.43
2019-02-10T11:10:18.988Z,21.71
2019-02-10T11:16:13.968Z,20.39
2019-02-10T11:22:08.963Z,18.86
2019-02-10T11:28:03.993Z,17.98
2019-02-10T11:33:59.008Z,19.05
2019-02-10T11:39:53.979Z,21.01
2019-02-10T11:45:49.042Z,23.13
2019-02-10T11:51:44.000Z,26.6
2019-02-10T11:57:39.013Z,26.86
2019-02-10T12:03:34.016Z,26.85
2019-02-10T12:09:29.016Z,24.25
2019-02-10T12:15:24.027Z,26.01
2019-02-10T12:21:19.077Z,29.56
2019-02-10T12:27:14.085Z,25.13
2019-02-10T12:33:09.053Z,27.24
2019-02-10T12:39:04.055Z,23
2019-02-10T12:44:59.047Z,24
2019-02-10T12:50:54.058Z,22.51
2019-02-10T12:56:49.069Z,24.61
2019-02-10T13:02:44.109Z,23.2
2019-02-10T13:08:39.076Z,22.56
2019-02-10T13:14:34.106Z,19.34
2019-02-10T13:20:29.111Z,16.91
2019-02-10T13:26:24.092Z,19.04
2019-02-10T13:32:19.083Z,13.1
2019-02-10T13:38:14.105Z,14.1
2019-02-10T13:44:09.123Z,13.1
2019-02-10T13:50:04.114Z,17.38
2019-02-10T13:55:59.118Z,16.27
2019-02-10T14:01:54.148Z,20.48
2019-02-10T14:07:50.620Z,14.69
2019-02-10T14:13:44.165Z,19.55
2019-02-10T14:19:39.145Z,18.37
2019-02-10T14:25:34.136Z,14.45
2019-02-10T14:31:29.188Z,9.33
2019-02-10T14:37:24.144Z,9.41
2019-02-10T14:43:19.171Z,7.3
2019-02-10T14:49:14.157Z,8.3
2019-02-10T14:55:09.201Z,6.08
2019-02-10T15:01:04.205Z,8.31
2019-02-10T15:06:59.171Z,6.11
2019-02-10T15:12:54.186Z,6.87
2019-02-10T15:18:49.208Z,7.36
2019-02-10T15:24:44.184Z,8.4
2019-02-10T15:30:39.239Z,5.61
2019-02-10T15:36:34.228Z,6.68
2019-02-10T15:42:29.199Z,7.99
2019-02-10T15:48:24.206Z,6.66
2019-02-10T15:54:19.235Z,7.44
2019-02-10T16:00:14.239Z,10.66
2019-02-10T16:06:09.220Z,7.14
2019-02-10T16:12:04.240Z,6.71
2019-02-10T16:17:59.300Z,10.15
2019-02-10T16:23:58.314Z,8.03
2019-02-10T16:29:49.242Z,6.38
2019-02-10T16:35:44.251Z,12.23
2019-02-10T16:41:39.266Z,9.44
2019-02-10T16:47:34.288Z,8.84
2019-02-10T16:53:29.331Z,7.99
2019-02-10T16:59:24.261Z,8.52
2019-02-10T17:05:19.271Z,8.93
2019-02-10T17:11:14.568Z,9.08
2019-02-10T17:17:09.283Z,6.9
2019-02-10T17:23:04.340Z,7.7
2019-02-10T17:28:59.341Z,10.46
2019-02-10T17:34:54.338Z,11.31
2019-02-10T17:40:49.301Z,8.9
2019-02-10T17:46:44.317Z,7.81
2019-02-10T17:52:39.349Z,13.97
2019-02-10T17:58:34.385Z,9.56
2019-02-10T18:04:37.201Z,10.35
2019-02-10T18:10:24.337Z,8.26
2019-02-10T18:16:19.360Z,8
2019-02-10T18:22:14.353Z,12.85
2019-02-10T18:28:09.343Z,15.27
2019-02-10T18:34:04.362Z,10.84
2019-02-10T18:39:59.353Z,12.48
2019-02-10T18:45:54.366Z,12.02
2019-02-10T18:51:49.369Z,13
2019-02-10T18:57:44.366Z,14.65
2019-02-10T19:03:39.414Z,9.04
2019-02-10T19:09:34.454Z,12.17
2019-02-10T19:15:29.422Z,9.08
2019-02-10T19:21:24.388Z,8.3
2019-02-10T19:27:19.390Z,9.61
2019-02-10T19:33:14.413Z,11.99
2019-02-10T19:39:09.433Z,8.55
2019-02-10T19:45:04.409Z,9.16
2019-02-10T19:50:59.428Z,8.48
2019-02-10T19:56:54.416Z,15.34
2019-02-10T20:02:49.452Z,6.51
2019-02-10T20:08:44.428Z,10.22
2019-02-10T20:14:39.461Z,9.57
2019-02-10T20:20:34.433Z,12.16
2019-02-10T20:26:29.456Z,8.2
2019-02-10T20:32:24.438Z,8
2019-02-10T20:38:19.459Z,7.7
2019-02-10T20:44:14.471Z,8
2019-02-10T20:50:09.502Z,5.58
2019-02-10T20:56:04.476Z,7.16
2019-02-10T21:01:59.476Z,7.79
2019-02-10T21:07:54.485Z,7.3
2019-02-10T21:13:49.513Z,5.23
2019-02-10T21:19:44.513Z,11.39
2019-02-10T21:25:39.515Z,4.76
2019-02-10T21:31:34.516Z,6.1
2019-02-10T21:37:29.500Z,9.15
2019-02-10T21:43:24.509Z,4.85
2019-02-10T21:49:19.572Z,10.25
2019-02-10T21:55:14.511Z,6.8
2019-02-10T22:01:09.543Z,5.86
2019-02-10T22:07:04.532Z,6.03
2019-02-10T22:12:59.551Z,5.8
2019-02-10T22:18:54.541Z,7.66
2019-02-10T22:24:49.576Z,6.38
2019-02-10T22:30:44.565Z,11.37
2019-02-10T22:36:39.559Z,9.44
2019-02-10T22:42:34.608Z,9.47
2019-02-10T22:48:29.594Z,8.86
2019-02-10T22:54:24.601Z,7.13
2019-02-10T23:00:19.591Z,9.31
2019-02-10T23:06:14.613Z,10.62
2019-02-10T23:12:09.580Z,8.2
2019-02-10T23:18:04.581Z,7.38
2019-02-10T23:23:59.600Z,12.81
2019-02-10T23:29:54.645Z,10.58
2019-02-10T23:35:49.602Z,11.11
2019-02-10T23:41:44.618Z,11.73
2019-02-10T23:47:39.639Z,13.73
2019-02-10T23:53:34.612Z,16.37
2019-02-10T23:59:29.623Z,13.68
